sensor_id;sensor_type;location;lat;lon;timestamp;pressure;altitude;pressure_sealevel;temperature
20058;BMP180;10189;49.546;7.906;2022-09-30T00:00:27;97283.00;;;8.70
20058;BMP180;10189;49.546;7.906;2022-09-30T00:02:54;97297.00;;;8.70
20058;BMP180;10189;49.546;7.906;2022-09-30T00:05:19;97286.00;;;8.60
20058;BMP180;10189;49.546;7.906;2022-09-30T00:07:45;97291.00;;;8.50
20058;BMP180;10189;49.546;7.906;2022-09-30T00:10:11;97299.00;;;8.50
20058;BMP180;10189;49.546;7.906;2022-09-30T00:12:39;97301.00;;;8.40
20058;BMP180;10189;49.546;7.906;2022-09-30T00:15:06;97310.00;;;8.30
20058;BMP180;10189;49.546;7.906;2022-09-30T00:17:32;97306.00;;;8.30
20058;BMP180;10189;49.546;7.906;2022-09-30T00:19:58;97306.00;;;8.20
20058;BMP180;10189;49.546;7.906;2022-09-30T00:22:24;97315.00;;;8.20
20058;BMP180;10189;49.546;7.906;2022-09-30T00:24:50;97312.00;;;8.20
20058;BMP180;10189;49.546;7.906;2022-09-30T00:27:16;97308.00;;;8.10
20058;BMP180;10189;49.546;7.906;2022-09-30T00:29:44;97308.00;;;8.10
20058;BMP180;10189;49.546;7.906;2022-09-30T00:32:10;97315.00;;;8.00
20058;BMP180;10189;49.546;7.906;2022-09-30T00:34:36;97322.00;;;7.90
20058;BMP180;10189;49.546;7.906;2022-09-30T00:37:02;97322.00;;;7.90
20058;BMP180;10189;49.546;7.906;2022-09-30T00:39:28;97327.00;;;7.90
20058;BMP180;10189;49.546;7.906;2022-09-30T00:42:01;97320.00;;;7.90
20058;BMP180;10189;49.546;7.906;2022-09-30T00:44:52;97321.00;;;7.80
20058;BMP180;10189;49.546;7.906;2022-09-30T00:50:38;97323.00;;;7.70
20058;BMP180;10189;49.546;7.906;2022-09-30T00:59:18;97329.00;;;7.70
20058;BMP180;10189;49.546;7.906;2022-09-30T01:01:40;97326.00;;;7.70
20058;BMP180;10189;49.546;7.906;2022-09-30T01:04:19;97334.00;;;7.70
20058;BMP180;10189;49.546;7.906;2022-09-30T01:06:47;97332.00;;;7.70
20058;BMP180;10189;49.546;7.906;2022-09-30T01:09:13;97335.00;;;7.80
20058;BMP180;10189;49.546;7.906;2022-09-30T01:11:39;97335.00;;;7.70
20058;BMP180;10189;49.546;7.906;2022-09-30T01:14:18;97325.00;;;7.80
20058;BMP180;10189;49.546;7.906;2022-09-30T01:17:09;97326.00;;;7.70
20058;BMP180;10189;49.546;7.906;2022-09-30T01:35:34;97343.00;;;7.40
20058;BMP180;10189;49.546;7.906;2022-09-30T01:38:25;97345.00;;;7.40
20058;BMP180;10189;49.546;7.906;2022-09-30T01:41:07;97344.00;;;7.30
20058;BMP180;10189;49.546;7.906;2022-09-30T01:44:05;97337.00;;;7.30
20058;BMP180;10189;49.546;7.906;2022-09-30T01:46:49;97340.00;;;7.20
20058;BMP180;10189;49.546;7.906;2022-09-30T01:57:48;97340.00;;;7.00
20058;BMP180;10189;49.546;7.906;2022-09-30T02:00:18;97348.00;;;7.00
20058;BMP180;10189;49.546;7.906;2022-09-30T02:02:52;97345.00;;;6.90
20058;BMP180;10189;49.546;7.906;2022-09-30T02:05:49;97354.00;;;6.90
20058;BMP180;10189;49.546;7.906;2022-09-30T02:08:38;97349.00;;;6.80
20058;BMP180;10189;49.546;7.906;2022-09-30T02:11:18;97350.00;;;6.70
20058;BMP180;10189;49.546;7.906;2022-09-30T02:13:58;97349.00;;;6.70
20058;BMP180;10189;49.546;7.906;2022-09-30T02:21:42;97354.00;;;6.50
20058;BMP180;10189;49.546;7.906;2022-09-30T02:24:15;97351.00;;;6.50
20058;BMP180;10189;49.546;7.906;2022-09-30T02:26:46;97362.00;;;6.50
20058;BMP180;10189;49.546;7.906;2022-09-30T02:29:24;97358.00;;;6.40
20058;BMP180;10189;49.546;7.906;2022-09-30T02:31:59;97371.00;;;6.40
20058;BMP180;10189;49.546;7.906;2022-09-30T02:34:36;97355.00;;;6.40
20058;BMP180;10189;49.546;7.906;2022-09-30T02:37:11;97374.00;;;6.40
20058;BMP180;10189;49.546;7.906;2022-09-30T02:39:45;97372.00;;;6.40
20058;BMP180;10189;49.546;7.906;2022-09-30T02:42:19;97376.00;;;6.40
20058;BMP180;10189;49.546;7.906;2022-09-30T02:44:51;97387.00;;;6.50
20058;BMP180;10189;49.546;7.906;2022-09-30T02:47:31;97384.00;;;6.50
20058;BMP180;10189;49.546;7.906;2022-09-30T02:50:29;97388.00;;;6.50
20058;BMP180;10189;49.546;7.906;2022-09-30T02:58:56;97384.00;;;6.50
20058;BMP180;10189;49.546;7.906;2022-09-30T03:01:23;97384.00;;;6.50
20058;BMP180;10189;49.546;7.906;2022-09-30T03:04:05;97384.00;;;6.50
20058;BMP180;10189;49.546;7.906;2022-09-30T03:06:35;97379.00;;;6.50
20058;BMP180;10189;49.546;7.906;2022-09-30T03:09:02;97376.00;;;6.40
20058;BMP180;10189;49.546;7.906;2022-09-30T03:11:30;97382.00;;;6.40
20058;BMP180;10189;49.546;7.906;2022-09-30T03:14:15;97393.00;;;6.30
20058;BMP180;10189;49.546;7.906;2022-09-30T03:23:30;97390.00;;;6.10
20058;BMP180;10189;49.546;7.906;2022-09-30T03:35:11;97413.00;;;6.00
20058;BMP180;10189;49.546;7.906;2022-09-30T03:37:56;97413.00;;;6.00
20058;BMP180;10189;49.546;7.906;2022-09-30T03:41:08;97403.00;;;6.00
20058;BMP180;10189;49.546;7.906;2022-09-30T03:43:46;97410.00;;;5.90
20058;BMP180;10189;49.546;7.906;2022-09-30T03:46:33;97408.00;;;5.90
20058;BMP180;10189;49.546;7.906;2022-09-30T03:49:04;97408.00;;;5.80
20058;BMP180;10189;49.546;7.906;2022-09-30T03:51:36;97402.00;;;5.80
20058;BMP180;10189;49.546;7.906;2022-09-30T03:54:08;97414.00;;;5.70
20058;BMP180;10189;49.546;7.906;2022-09-30T03:56:36;97421.00;;;5.70
20058;BMP180;10189;49.546;7.906;2022-09-30T03:59:25;97412.00;;;5.70
20058;BMP180;10189;49.546;7.906;2022-09-30T04:01:53;97427.00;;;5.70
20058;BMP180;10189;49.546;7.906;2022-09-30T04:04:20;97428.00;;;5.60
20058;BMP180;10189;49.546;7.906;2022-09-30T04:06:46;97440.00;;;5.60
20058;BMP180;10189;49.546;7.906;2022-09-30T04:09:12;97437.00;;;5.80
20058;BMP180;10189;49.546;7.906;2022-09-30T04:11:38;97440.00;;;5.80
20058;BMP180;10189;49.546;7.906;2022-09-30T04:14:04;97435.00;;;5.80
20058;BMP180;10189;49.546;7.906;2022-09-30T04:16:31;97436.00;;;5.80
20058;BMP180;10189;49.546;7.906;2022-09-30T04:18:57;97431.00;;;5.90
20058;BMP180;10189;49.546;7.906;2022-09-30T04:21:24;97438.00;;;6.00
20058;BMP180;10189;49.546;7.906;2022-09-30T04:23:54;97435.00;;;5.90
20058;BMP180;10189;49.546;7.906;2022-09-30T04:26:20;97441.00;;;6.00
20058;BMP180;10189;49.546;7.906;2022-09-30T04:28:46;97446.00;;;6.00
20058;BMP180;10189;49.546;7.906;2022-09-30T04:31:13;97442.00;;;6.00
20058;BMP180;10189;49.546;7.906;2022-09-30T04:33:39;97446.00;;;6.10
20058;BMP180;10189;49.546;7.906;2022-09-30T04:36:06;97438.00;;;6.10
20058;BMP180;10189;49.546;7.906;2022-09-30T04:38:32;97440.00;;;6.10
20058;BMP180;10189;49.546;7.906;2022-09-30T04:41:02;97452.00;;;6.10
20058;BMP180;10189;49.546;7.906;2022-09-30T04:43:30;97452.00;;;6.00
20058;BMP180;10189;49.546;7.906;2022-09-30T04:45:57;97447.00;;;5.90
20058;BMP180;10189;49.546;7.906;2022-09-30T04:48:23;97452.00;;;5.90
20058;BMP180;10189;49.546;7.906;2022-09-30T04:50:50;97455.00;;;5.90
20058;BMP180;10189;49.546;7.906;2022-09-30T04:53:17;97465.00;;;5.80
20058;BMP180;10189;49.546;7.906;2022-09-30T04:55:44;97461.00;;;5.80
20058;BMP180;10189;49.546;7.906;2022-09-30T04:58:11;97476.00;;;5.80
20058;BMP180;10189;49.546;7.906;2022-09-30T05:00:37;97468.00;;;5.70
20058;BMP180;10189;49.546;7.906;2022-09-30T05:03:04;97467.00;;;5.60
20058;BMP180;10189;49.546;7.906;2022-09-30T05:05:32;97473.00;;;5.60
20058;BMP180;10189;49.546;7.906;2022-09-30T05:08:05;97471.00;;;5.60
20058;BMP180;10189;49.546;7.906;2022-09-30T05:10:31;97481.00;;;5.60
20058;BMP180;10189;49.546;7.906;2022-09-30T05:12:57;97488.00;;;5.60
20058;BMP180;10189;49.546;7.906;2022-09-30T05:15:24;97487.00;;;5.60
20058;BMP180;10189;49.546;7.906;2022-09-30T05:17:51;97489.00;;;5.60
20058;BMP180;10189;49.546;7.906;2022-09-30T05:20:17;97493.00;;;5.70
20058;BMP180;10189;49.546;7.906;2022-09-30T05:22:43;97499.00;;;5.70
20058;BMP180;10189;49.546;7.906;2022-09-30T05:25:09;97500.00;;;5.80
20058;BMP180;10189;49.546;7.906;2022-09-30T05:27:35;97511.00;;;5.80
20058;BMP180;10189;49.546;7.906;2022-09-30T05:30:01;97523.00;;;5.90
20058;BMP180;10189;49.546;7.906;2022-09-30T05:32:28;97532.00;;;6.00
20058;BMP180;10189;49.546;7.906;2022-09-30T05:34:54;97528.00;;;6.00
20058;BMP180;10189;49.546;7.906;2022-09-30T05:37:20;97522.00;;;6.10
20058;BMP180;10189;49.546;7.906;2022-09-30T05:39:46;97524.00;;;6.10
20058;BMP180;10189;49.546;7.906;2022-09-30T05:42:12;97539.00;;;6.10
20058;BMP180;10189;49.546;7.906;2022-09-30T05:44:38;97519.00;;;6.20
20058;BMP180;10189;49.546;7.906;2022-09-30T05:47:04;97524.00;;;6.30
20058;BMP180;10189;49.546;7.906;2022-09-30T05:49:30;97531.00;;;6.40
20058;BMP180;10189;49.546;7.906;2022-09-30T05:51:59;97527.00;;;6.50
20058;BMP180;10189;49.546;7.906;2022-09-30T05:54:25;97537.00;;;6.50
20058;BMP180;10189;49.546;7.906;2022-09-30T05:56:51;97537.00;;;6.50
20058;BMP180;10189;49.546;7.906;2022-09-30T05:59:17;97537.00;;;6.60
20058;BMP180;10189;49.546;7.906;2022-09-30T06:01:44;97537.00;;;6.60
20058;BMP180;10189;49.546;7.906;2022-09-30T06:04:11;97536.00;;;6.60
20058;BMP180;10189;49.546;7.906;2022-09-30T06:06:36;97536.00;;;6.70
20058;BMP180;10189;49.546;7.906;2022-09-30T06:09:03;97538.00;;;6.80
20058;BMP180;10189;49.546;7.906;2022-09-30T06:11:30;97538.00;;;6.90
20058;BMP180;10189;49.546;7.906;2022-09-30T06:13:56;97550.00;;;6.80
20058;BMP180;10189;49.546;7.906;2022-09-30T06:16:22;97544.00;;;6.90
20058;BMP180;10189;49.546;7.906;2022-09-30T06:18:49;97538.00;;;7.10
20058;BMP180;10189;49.546;7.906;2022-09-30T06:21:16;97546.00;;;7.30
20058;BMP180;10189;49.546;7.906;2022-09-30T06:23:43;97552.00;;;7.40
20058;BMP180;10189;49.546;7.906;2022-09-30T06:26:11;97554.00;;;7.40
20058;BMP180;10189;49.546;7.906;2022-09-30T06:28:38;97550.00;;;7.50
20058;BMP180;10189;49.546;7.906;2022-09-30T06:31:05;97551.00;;;7.60
20058;BMP180;10189;49.546;7.906;2022-09-30T06:33:32;97554.00;;;7.70
20058;BMP180;10189;49.546;7.906;2022-09-30T06:35:59;97549.00;;;7.70
20058;BMP180;10189;49.546;7.906;2022-09-30T06:38:31;97565.00;;;7.90
20058;BMP180;10189;49.546;7.906;2022-09-30T06:40:59;97551.00;;;8.10
20058;BMP180;10189;49.546;7.906;2022-09-30T06:43:25;97547.00;;;8.20
20058;BMP180;10189;49.546;7.906;2022-09-30T06:45:51;97548.00;;;8.30
20058;BMP180;10189;49.546;7.906;2022-09-30T06:48:17;97549.00;;;8.50
20058;BMP180;10189;49.546;7.906;2022-09-30T06:50:43;97546.00;;;8.50
20058;BMP180;10189;49.546;7.906;2022-09-30T06:53:11;97547.00;;;8.50
20058;BMP180;10189;49.546;7.906;2022-09-30T06:55:38;97548.00;;;8.60
20058;BMP180;10189;49.546;7.906;2022-09-30T06:58:08;97550.00;;;8.70
20058;BMP180;10189;49.546;7.906;2022-09-30T07:00:36;97552.00;;;8.60
20058;BMP180;10189;49.546;7.906;2022-09-30T07:03:03;97562.00;;;8.50
20058;BMP180;10189;49.546;7.906;2022-09-30T07:05:35;97562.00;;;8.60
20058;BMP180;10189;49.546;7.906;2022-09-30T07:08:02;97568.00;;;8.70
20058;BMP180;10189;49.546;7.906;2022-09-30T07:10:28;97556.00;;;8.80
20058;BMP180;10189;49.546;7.906;2022-09-30T07:12:54;97569.00;;;8.90
20058;BMP180;10189;49.546;7.906;2022-09-30T07:15:20;97562.00;;;9.00
20058;BMP180;10189;49.546;7.906;2022-09-30T07:17:54;97574.00;;;9.10
20058;BMP180;10189;49.546;7.906;2022-09-30T07:20:24;97569.00;;;9.10
20058;BMP180;10189;49.546;7.906;2022-09-30T07:22:50;97578.00;;;9.20
20058;BMP180;10189;49.546;7.906;2022-09-30T07:25:16;97575.00;;;9.30
20058;BMP180;10189;49.546;7.906;2022-09-30T07:27:43;97592.00;;;9.40
20058;BMP180;10189;49.546;7.906;2022-09-30T07:30:10;97590.00;;;9.30
20058;BMP180;10189;49.546;7.906;2022-09-30T07:32:36;97600.00;;;9.30
20058;BMP180;10189;49.546;7.906;2022-09-30T07:35:03;97594.00;;;9.30
20058;BMP180;10189;49.546;7.906;2022-09-30T07:37:29;97591.00;;;9.40
20058;BMP180;10189;49.546;7.906;2022-09-30T07:40:05;97597.00;;;9.30
20058;BMP180;10189;49.546;7.906;2022-09-30T07:42:31;97596.00;;;9.10
20058;BMP180;10189;49.546;7.906;2022-09-30T07:44:57;97597.00;;;9.30
20058;BMP180;10189;49.546;7.906;2022-09-30T07:47:23;97587.00;;;9.50
20058;BMP180;10189;49.546;7.906;2022-09-30T07:49:49;97592.00;;;9.60
20058;BMP180;10189;49.546;7.906;2022-09-30T07:52:15;97587.00;;;9.80
20058;BMP180;10189;49.546;7.906;2022-09-30T07:54:41;97592.00;;;10.00
20058;BMP180;10189;49.546;7.906;2022-09-30T07:57:08;97595.00;;;10.20
20058;BMP180;10189;49.546;7.906;2022-09-30T07:59:39;97600.00;;;10.40
20058;BMP180;10189;49.546;7.906;2022-09-30T08:02:13;97596.00;;;10.50
20058;BMP180;10189;49.546;7.906;2022-09-30T08:04:40;97601.00;;;10.60
20058;BMP180;10189;49.546;7.906;2022-09-30T08:07:06;97604.00;;;10.60
20058;BMP180;10189;49.546;7.906;2022-09-30T08:09:31;97616.00;;;10.80
20058;BMP180;10189;49.546;7.906;2022-09-30T08:11:58;97600.00;;;11.10
20058;BMP180;10189;49.546;7.906;2022-09-30T08:14:26;97607.00;;;10.90
20058;BMP180;10189;49.546;7.906;2022-09-30T08:16:53;97614.00;;;10.90
20058;BMP180;10189;49.546;7.906;2022-09-30T08:19:23;97608.00;;;10.80
20058;BMP180;10189;49.546;7.906;2022-09-30T08:21:50;97613.00;;;11.20
20058;BMP180;10189;49.546;7.906;2022-09-30T08:24:19;97615.00;;;11.10
20058;BMP180;10189;49.546;7.906;2022-09-30T08:26:45;97609.00;;;11.10
20058;BMP180;10189;49.546;7.906;2022-09-30T08:29:12;97609.00;;;11.00
20058;BMP180;10189;49.546;7.906;2022-09-30T08:31:40;97605.00;;;11.10
20058;BMP180;10189;49.546;7.906;2022-09-30T08:34:06;97613.00;;;11.40
20058;BMP180;10189;49.546;7.906;2022-09-30T08:36:32;97607.00;;;11.40
20058;BMP180;10189;49.546;7.906;2022-09-30T08:38:58;97614.00;;;11.60
20058;BMP180;10189;49.546;7.906;2022-09-30T08:45:00;97607.00;;;12.20
20058;BMP180;10189;49.546;7.906;2022-09-30T08:47:50;97614.00;;;12.40
20058;BMP180;10189;49.546;7.906;2022-09-30T08:50:45;97605.00;;;12.70
20058;BMP180;10189;49.546;7.906;2022-09-30T08:53:22;97613.00;;;12.70
20058;BMP180;10189;49.546;7.906;2022-09-30T08:55:51;97604.00;;;13.00
20058;BMP180;10189;49.546;7.906;2022-09-30T08:58:30;97614.00;;;12.90
20058;BMP180;10189;49.546;7.906;2022-09-30T09:01:29;97604.00;;;13.00
20058;BMP180;10189;49.546;7.906;2022-09-30T09:03:57;97615.00;;;13.10
20058;BMP180;10189;49.546;7.906;2022-09-30T09:09:47;97612.00;;;13.50
20058;BMP180;10189;49.546;7.906;2022-09-30T09:12:50;97610.00;;;13.60
20058;BMP180;10189;49.546;7.906;2022-09-30T09:20:35;97614.00;;;14.00
20058;BMP180;10189;49.546;7.906;2022-09-30T09:23:10;97612.00;;;14.20
20058;BMP180;10189;49.546;7.906;2022-09-30T09:25:37;97617.00;;;14.30
20058;BMP180;10189;49.546;7.906;2022-09-30T09:28:38;97612.00;;;14.40
20058;BMP180;10189;49.546;7.906;2022-09-30T09:31:14;97627.00;;;14.40
20058;BMP180;10189;49.546;7.906;2022-09-30T09:33:42;97621.00;;;14.50
20058;BMP180;10189;49.546;7.906;2022-09-30T09:36:37;97611.00;;;14.70
20058;BMP180;10189;49.546;7.906;2022-09-30T09:39:26;97623.00;;;14.50
20058;BMP180;10189;49.546;7.906;2022-09-30T09:45:02;97628.00;;;15.10
20058;BMP180;10189;49.546;7.906;2022-09-30T09:47:29;97628.00;;;15.30
20058;BMP180;10189;49.546;7.906;2022-09-30T09:49:59;97620.00;;;15.40
20058;BMP180;10189;49.546;7.906;2022-09-30T09:55:21;97624.00;;;15.50
20058;BMP180;10189;49.546;7.906;2022-09-30T09:57:48;97624.00;;;15.60
20058;BMP180;10189;49.546;7.906;2022-09-30T10:00:28;97621.00;;;15.60
20058;BMP180;10189;49.546;7.906;2022-09-30T10:03:21;97624.00;;;15.80
20058;BMP180;10189;49.546;7.906;2022-09-30T10:08:35;97619.00;;;16.00
20058;BMP180;10189;49.546;7.906;2022-09-30T10:13:45;97619.00;;;15.60
20058;BMP180;10189;49.546;7.906;2022-09-30T10:16:36;97617.00;;;15.30
20058;BMP180;10189;49.546;7.906;2022-09-30T10:19:17;97608.00;;;15.40
20058;BMP180;10189;49.546;7.906;2022-09-30T10:21:44;97603.00;;;15.50
20058;BMP180;10189;49.546;7.906;2022-09-30T10:24:29;97605.00;;;15.50
20058;BMP180;10189;49.546;7.906;2022-09-30T10:26:56;97610.00;;;15.60
20058;BMP180;10189;49.546;7.906;2022-09-30T10:29:34;97600.00;;;15.80
20058;BMP180;10189;49.546;7.906;2022-09-30T10:32:05;97599.00;;;16.10
20058;BMP180;10189;49.546;7.906;2022-09-30T10:34:37;97607.00;;;16.50
20058;BMP180;10189;49.546;7.906;2022-09-30T10:37:16;97611.00;;;16.40
20058;BMP180;10189;49.546;7.906;2022-09-30T10:40:00;97608.00;;;16.60
20058;BMP180;10189;49.546;7.906;2022-09-30T10:42:31;97604.00;;;16.80
20058;BMP180;10189;49.546;7.906;2022-09-30T10:45:17;97602.00;;;16.90
20058;BMP180;10189;49.546;7.906;2022-09-30T10:47:49;97584.00;;;16.70
20058;BMP180;10189;49.546;7.906;2022-09-30T10:50:24;97595.00;;;17.00
20058;BMP180;10189;49.546;7.906;2022-09-30T10:53:20;97591.00;;;17.00
20058;BMP180;10189;49.546;7.906;2022-09-30T10:55:47;97601.00;;;16.90
20058;BMP180;10189;49.546;7.906;2022-09-30T10:59:00;97595.00;;;16.80
20058;BMP180;10189;49.546;7.906;2022-09-30T11:01:44;97599.00;;;17.10
20058;BMP180;10189;49.546;7.906;2022-09-30T11:06:43;97599.00;;;17.00
20058;BMP180;10189;49.546;7.906;2022-09-30T11:09:49;97602.00;;;17.00
20058;BMP180;10189;49.546;7.906;2022-09-30T11:14:57;97588.00;;;17.40
20058;BMP180;10189;49.546;7.906;2022-09-30T11:20:56;97592.00;;;17.60
20058;BMP180;10189;49.546;7.906;2022-09-30T11:23:36;97590.00;;;17.60
20058;BMP180;10189;49.546;7.906;2022-09-30T11:38:41;97598.00;;;17.70
20058;BMP180;10189;49.546;7.906;2022-09-30T11:44:31;97593.00;;;17.60
20058;BMP180;10189;49.546;7.906;2022-09-30T11:47:36;97595.00;;;17.60
20058;BMP180;10189;49.546;7.906;2022-09-30T11:50:45;97598.00;;;17.80
20058;BMP180;10189;49.546;7.906;2022-09-30T11:59:32;97614.00;;;17.80
20058;BMP180;10189;49.546;7.906;2022-09-30T12:02:02;97607.00;;;18.00
20058;BMP180;10189;49.546;7.906;2022-09-30T12:04:39;97597.00;;;18.20
20058;BMP180;10189;49.546;7.906;2022-09-30T12:07:30;97596.00;;;18.40
20058;BMP180;10189;49.546;7.906;2022-09-30T12:10:13;97603.00;;;18.30
20058;BMP180;10189;49.546;7.906;2022-09-30T12:12:41;97614.00;;;17.90
20058;BMP180;10189;49.546;7.906;2022-09-30T12:15:16;97607.00;;;18.00
20058;BMP180;10189;49.546;7.906;2022-09-30T12:17:50;97607.00;;;17.90
20058;BMP180;10189;49.546;7.906;2022-09-30T12:20:26;97602.00;;;18.00
20058;BMP180;10189;49.546;7.906;2022-09-30T12:23:15;97616.00;;;18.10
20058;BMP180;10189;49.546;7.906;2022-09-30T12:25:56;97609.00;;;18.10
20058;BMP180;10189;49.546;7.906;2022-09-30T12:28:48;97619.00;;;18.10
20058;BMP180;10189;49.546;7.906;2022-09-30T12:31:50;97612.00;;;18.10
20058;BMP180;10189;49.546;7.906;2022-09-30T12:34:41;97611.00;;;18.40
20058;BMP180;10189;49.546;7.906;2022-09-30T12:40:30;97613.00;;;18.70
20058;BMP180;10189;49.546;7.906;2022-09-30T12:43:30;97615.00;;;18.80
20058;BMP180;10189;49.546;7.906;2022-09-30T12:49:01;97617.00;;;18.70
20058;BMP180;10189;49.546;7.906;2022-09-30T12:51:35;97621.00;;;18.60
20058;BMP180;10189;49.546;7.906;2022-09-30T12:54:25;97616.00;;;18.50
20058;BMP180;10189;49.546;7.906;2022-09-30T12:57:02;97622.00;;;18.30
20058;BMP180;10189;49.546;7.906;2022-09-30T12:59:36;97622.00;;;18.50
20058;BMP180;10189;49.546;7.906;2022-09-30T13:02:05;97613.00;;;18.50
20058;BMP180;10189;49.546;7.906;2022-09-30T13:04:36;97613.00;;;18.60
20058;BMP180;10189;49.546;7.906;2022-09-30T13:09:55;97626.00;;;18.50
20058;BMP180;10189;49.546;7.906;2022-09-30T13:12:41;97627.00;;;18.30
20058;BMP180;10189;49.546;7.906;2022-09-30T13:23:46;97629.00;;;18.50
20058;BMP180;10189;49.546;7.906;2022-09-30T13:34:28;97629.00;;;18.60
20058;BMP180;10189;49.546;7.906;2022-09-30T13:37:04;97632.00;;;18.50
20058;BMP180;10189;49.546;7.906;2022-09-30T13:42:23;97625.00;;;18.20
20058;BMP180;10189;49.546;7.906;2022-09-30T13:45:20;97626.00;;;18.30
20058;BMP180;10189;49.546;7.906;2022-09-30T13:48:13;97621.00;;;18.50
20058;BMP180;10189;49.546;7.906;2022-09-30T13:50:48;97619.00;;;18.70
20058;BMP180;10189;49.546;7.906;2022-09-30T13:53:29;97620.00;;;18.90
20058;BMP180;10189;49.546;7.906;2022-09-30T13:56:03;97612.00;;;18.80
20058;BMP180;10189;49.546;7.906;2022-09-30T14:13:23;97617.00;;;18.40
20058;BMP180;10189;49.546;7.906;2022-09-30T14:21:51;97625.00;;;18.50
20058;BMP180;10189;49.546;7.906;2022-09-30T14:24:23;97616.00;;;18.50
20058;BMP180;10189;49.546;7.906;2022-09-30T14:27:23;97627.00;;;18.30
20058;BMP180;10189;49.546;7.906;2022-09-30T14:32:39;97618.00;;;18.10
20058;BMP180;10189;49.546;7.906;2022-09-30T14:35:10;97625.00;;;18.00
20058;BMP180;10189;49.546;7.906;2022-09-30T14:38:17;97612.00;;;18.00
20058;BMP180;10189;49.546;7.906;2022-09-30T14:40:52;97617.00;;;18.10
20058;BMP180;10189;49.546;7.906;2022-09-30T14:43:30;97613.00;;;18.00
20058;BMP180;10189;49.546;7.906;2022-09-30T14:46:04;97615.00;;;18.10
20058;BMP180;10189;49.546;7.906;2022-09-30T14:48:37;97613.00;;;18.10
20058;BMP180;10189;49.546;7.906;2022-09-30T14:51:10;97606.00;;;18.00
20058;BMP180;10189;49.546;7.906;2022-09-30T14:53:53;97614.00;;;17.70
20058;BMP180;10189;49.546;7.906;2022-09-30T14:56:28;97613.00;;;17.70
20058;BMP180;10189;49.546;7.906;2022-09-30T14:58:59;97606.00;;;17.60
20058;BMP180;10189;49.546;7.906;2022-09-30T15:01:36;97610.00;;;17.50
20058;BMP180;10189;49.546;7.906;2022-09-30T15:04:14;97612.00;;;17.30
20058;BMP180;10189;49.546;7.906;2022-09-30T15:06:50;97612.00;;;17.20
20058;BMP180;10189;49.546;7.906;2022-09-30T15:09:33;97600.00;;;17.20
20058;BMP180;10189;49.546;7.906;2022-09-30T15:12:16;97600.00;;;17.10
20058;BMP180;10189;49.546;7.906;2022-09-30T15:14:52;97601.00;;;17.10
20058;BMP180;10189;49.546;7.906;2022-09-30T15:17:19;97601.00;;;17.00
20058;BMP180;10189;49.546;7.906;2022-09-30T15:19:45;97610.00;;;16.90
20058;BMP180;10189;49.546;7.906;2022-09-30T15:22:13;97606.00;;;16.90
20058;BMP180;10189;49.546;7.906;2022-09-30T15:24:39;97612.00;;;16.90
20058;BMP180;10189;49.546;7.906;2022-09-30T15:27:27;97611.00;;;16.80
20058;BMP180;10189;49.546;7.906;2022-09-30T15:32:45;97610.00;;;16.70
20058;BMP180;10189;49.546;7.906;2022-09-30T15:35:19;97599.00;;;16.60
20058;BMP180;10189;49.546;7.906;2022-09-30T15:37:50;97600.00;;;16.60
20058;BMP180;10189;49.546;7.906;2022-09-30T15:40:22;97606.00;;;16.50
20058;BMP180;10189;49.546;7.906;2022-09-30T15:43:10;97609.00;;;16.40
20058;BMP180;10189;49.546;7.906;2022-09-30T15:45:45;97610.00;;;16.30
20058;BMP180;10189;49.546;7.906;2022-09-30T15:48:32;97603.00;;;16.10
20058;BMP180;10189;49.546;7.906;2022-09-30T15:53:52;97603.00;;;15.90
20058;BMP180;10189;49.546;7.906;2022-09-30T15:56:33;97614.00;;;15.80
20058;BMP180;10189;49.546;7.906;2022-09-30T15:59:04;97619.00;;;15.80
20058;BMP180;10189;49.546;7.906;2022-09-30T16:06:51;97618.00;;;15.50
20058;BMP180;10189;49.546;7.906;2022-09-30T16:09:21;97618.00;;;15.40
20058;BMP180;10189;49.546;7.906;2022-09-30T16:17:35;97631.00;;;15.20
20058;BMP180;10189;49.546;7.906;2022-09-30T16:20:10;97642.00;;;15.10
20058;BMP180;10189;49.546;7.906;2022-09-30T16:25:32;97641.00;;;14.90
20058;BMP180;10189;49.546;7.906;2022-09-30T16:28:00;97646.00;;;14.80
20058;BMP180;10189;49.546;7.906;2022-09-30T16:30:28;97643.00;;;14.70
20058;BMP180;10189;49.546;7.906;2022-09-30T16:33:02;97639.00;;;14.60
20058;BMP180;10189;49.546;7.906;2022-09-30T16:35:29;97650.00;;;14.50
20058;BMP180;10189;49.546;7.906;2022-09-30T16:38:05;97646.00;;;14.40
20058;BMP180;10189;49.546;7.906;2022-09-30T16:40:33;97646.00;;;14.30
20058;BMP180;10189;49.546;7.906;2022-09-30T16:43:02;97646.00;;;14.10
20058;BMP180;10189;49.546;7.906;2022-09-30T16:45:30;97649.00;;;14.00
20058;BMP180;10189;49.546;7.906;2022-09-30T16:47:58;97649.00;;;13.90
20058;BMP180;10189;49.546;7.906;2022-09-30T16:53:16;97659.00;;;13.70
20058;BMP180;10189;49.546;7.906;2022-09-30T16:55:42;97660.00;;;13.60
20058;BMP180;10189;49.546;7.906;2022-09-30T16:58:13;97673.00;;;13.50
20058;BMP180;10189;49.546;7.906;2022-09-30T17:00:42;97663.00;;;13.40
20058;BMP180;10189;49.546;7.906;2022-09-30T17:03:14;97674.00;;;13.20
20058;BMP180;10189;49.546;7.906;2022-09-30T17:05:46;97658.00;;;13.10
20058;BMP180;10189;49.546;7.906;2022-09-30T17:08:19;97662.00;;;13.00
20058;BMP180;10189;49.546;7.906;2022-09-30T17:10:47;97668.00;;;12.80
20058;BMP180;10189;49.546;7.906;2022-09-30T17:13:16;97676.00;;;12.70
20058;BMP180;10189;49.546;7.906;2022-09-30T17:15:50;97676.00;;;12.50
20058;BMP180;10189;49.546;7.906;2022-09-30T17:18:17;97679.00;;;12.40
20058;BMP180;10189;49.546;7.906;2022-09-30T17:20:47;97681.00;;;12.30
20058;BMP180;10189;49.546;7.906;2022-09-30T17:23:23;97695.00;;;12.10
20058;BMP180;10189;49.546;7.906;2022-09-30T17:25:49;97688.00;;;12.00
20058;BMP180;10189;49.546;7.906;2022-09-30T17:28:16;97690.00;;;12.00
20058;BMP180;10189;49.546;7.906;2022-09-30T17:30:44;97689.00;;;11.90
20058;BMP180;10189;49.546;7.906;2022-09-30T17:33:12;97695.00;;;11.80
20058;BMP180;10189;49.546;7.906;2022-09-30T17:35:39;97699.00;;;11.70
20058;BMP180;10189;49.546;7.906;2022-09-30T17:38:07;97700.00;;;11.60
20058;BMP180;10189;49.546;7.906;2022-09-30T17:40:34;97715.00;;;11.50
20058;BMP180;10189;49.546;7.906;2022-09-30T17:43:18;97714.00;;;11.50
20058;BMP180;10189;49.546;7.906;2022-09-30T17:45:46;97711.00;;;11.40
20058;BMP180;10189;49.546;7.906;2022-09-30T17:48:15;97721.00;;;11.30
20058;BMP180;10189;49.546;7.906;2022-09-30T17:50:45;97719.00;;;11.30
20058;BMP180;10189;49.546;7.906;2022-09-30T17:53:13;97730.00;;;11.20
20058;BMP180;10189;49.546;7.906;2022-09-30T17:55:44;97732.00;;;11.10